Time;durP1;ratioP1;P1;durP2;ratioP2;P2;SDS_P1;SDS_P2;PMS_P1;PMS_P2;Temp;Humidity;BMP_temperature;BMP_pressure;BME280_temperature;BME280_humidity;BME280_pressure;Samples;Min_cycle;Max_cycle;Signal;HPM_P1;HPM_P2
2023/09/27 00:02:09;;;;;;;8.37;7.17;;;13.70;99.90;;;;;;5028291;28;20744;-78
2023/09/27 00:04:36;;;;;;;8.10;7.23;;;13.70;99.90;;;;;;5028410;28;20479;-79
2023/09/27 00:07:04;;;;;;;8.13;6.77;;;13.70;99.90;;;;;;5009944;28;20228;-79
2023/09/27 00:09:31;;;;;;;7.40;6.70;;;13.70;99.90;;;;;;5009963;28;20280;-78
2023/09/27 00:11:58;;;;;;;9.20;6.70;;;13.60;99.90;;;;;;5010043;28;20219;-79
2023/09/27 00:14:27;;;;;;;8.10;7.33;;;13.60;99.90;;;;;;5034075;28;20230;-78
2023/09/27 00:16:55;;;;;;;9.40;8.20;;;13.60;99.90;;;;;;5039628;28;20223;-78
2023/09/27 00:19:22;;;;;;;9.93;7.43;;;13.50;99.90;;;;;;5026332;28;20231;-78
2023/09/27 00:21:49;;;;;;;7.70;6.83;;;13.50;99.90;;;;;;5027052;28;20230;-79
2023/09/27 00:24:15;;;;;;;8.00;7.20;;;13.50;99.90;;;;;;5025439;28;20226;-79
2023/09/27 00:26:42;;;;;;;8.00;7.20;;;13.50;99.90;;;;;;5040433;28;20229;-79
2023/09/27 00:29:09;;;;;;;8.03;7.17;;;13.50;99.90;;;;;;5024070;28;20215;-79
2023/09/27 00:31:36;;;;;;;8.97;7.37;;;13.40;99.90;;;;;;5022899;28;20229;-79
2023/09/27 00:34:04;;;;;;;9.07;7.63;;;13.40;99.90;;;;;;5036414;28;20217;-78
2023/09/27 00:36:31;;;;;;;7.70;6.90;;;13.40;99.90;;;;;;5027322;28;20229;-79
2023/09/27 00:38:58;;;;;;;7.57;6.87;;;13.40;99.90;;;;;;5023305;28;20889;-79
2023/09/27 00:41:25;;;;;;;7.77;7.07;;;13.40;99.90;;;;;;5023076;28;20321;-78
2023/09/27 00:43:51;;;;;;;7.63;6.70;;;13.40;99.90;;;;;;5046698;28;20232;-79
2023/09/27 00:46:19;;;;;;;6.67;6.07;;;13.30;99.90;;;;;;5024035;28;20240;-79
2023/09/27 00:48:46;;;;;;;7.60;6.73;;;13.30;99.90;;;;;;5023734;28;20230;-79
2023/09/27 00:51:15;;;;;;;7.63;6.93;;;13.20;99.90;;;;;;5018239;28;20269;-79
2023/09/27 00:53:43;;;;;;;7.60;6.67;;;13.20;99.90;;;;;;5027106;28;20308;-79
2023/09/27 00:56:10;;;;;;;7.37;6.70;;;13.20;99.90;;;;;;5023178;28;20233;-79
2023/09/27 00:58:38;;;;;;;7.50;6.80;;;13.20;99.90;;;;;;5023911;28;20261;-78
2023/09/27 01:01:06;;;;;;;7.30;6.37;;;13.10;99.90;;;;;;5022381;28;20223;-79
2023/09/27 01:03:33;;;;;;;7.17;6.47;;;13.10;99.90;;;;;;5021596;28;20230;-78
2023/09/27 01:06:00;;;;;;;7.40;6.60;;;13.00;99.90;;;;;;5023238;28;20240;-76
2023/09/27 01:08:28;;;;;;;8.00;7.13;;;13.00;99.90;;;;;;5022959;28;20227;-78
2023/09/27 01:10:54;;;;;;;8.83;8.00;;;12.90;99.90;;;;;;5024063;28;20635;-78
2023/09/27 01:13:21;;;;;;;8.03;7.27;;;12.90;99.90;;;;;;5033187;28;20229;-79
2023/09/27 01:15:48;;;;;;;7.57;6.77;;;12.90;99.90;;;;;;5026334;28;20257;-78
2023/09/27 01:18:16;;;;;;;8.07;7.27;;;12.90;99.90;;;;;;5007118;28;20302;-79
2023/09/27 01:20:43;;;;;;;9.03;8.20;;;12.80;99.90;;;;;;5003510;28;20224;-78
2023/09/27 01:23:11;;;;;;;9.77;7.80;;;12.70;99.90;;;;;;5039935;28;20228;-81
2023/09/27 01:25:39;;;;;;;9.57;8.10;;;12.70;99.90;;;;;;5028846;28;20228;-81
2023/09/27 01:28:08;;;;;;;8.30;7.30;;;12.70;99.90;;;;;;5035641;28;20230;-80
2023/09/27 01:30:35;;;;;;;8.90;7.80;;;12.60;99.90;;;;;;5023644;28;20228;-80
2023/09/27 01:33:05;;;;;;;9.07;8.17;;;12.60;99.90;;;;;;5031670;28;20217;-80
2023/09/27 01:35:32;;;;;;;9.37;7.50;;;12.60;99.90;;;;;;5020640;28;20224;-79
2023/09/27 01:37:59;;;;;;;9.47;8.57;;;12.50;99.90;;;;;;5028193;28;20220;-79
2023/09/27 01:40:30;;;;;;;9.20;8.20;;;12.50;99.90;;;;;;5028785;28;20226;-80
2023/09/27 01:42:58;;;;;;;8.77;7.93;;;12.50;99.90;;;;;;5029313;28;20289;-80
2023/09/27 01:45:25;;;;;;;9.50;8.03;;;12.50;99.90;;;;;;5030552;28;20322;-81
2023/09/27 01:47:52;;;;;;;10.07;9.13;;;12.40;99.90;;;;;;5028656;28;20223;-80
2023/09/27 01:50:19;;;;;;;9.90;9.00;;;12.40;99.90;;;;;;5060146;28;20227;-81
2023/09/27 01:52:46;;;;;;;8.53;7.73;;;12.40;99.90;;;;;;5029265;28;20238;-79
2023/09/27 01:55:14;;;;;;;8.47;7.57;;;12.40;99.90;;;;;;5028052;28;20957;-78
2023/09/27 01:57:45;;;;;;;9.30;8.43;;;12.30;99.90;;;;;;5032942;28;20224;-80
2023/09/27 02:00:14;;;;;;;8.90;8.03;;;12.30;99.90;;;;;;5027913;28;20226;-79
2023/09/27 02:02:41;;;;;;;9.23;8.33;;;12.20;99.90;;;;;;5027861;28;20309;-79
2023/09/27 02:05:09;;;;;;;8.90;7.73;;;12.20;99.90;;;;;;5056803;28;20939;-79
2023/09/27 02:07:37;;;;;;;9.00;7.93;;;12.20;99.90;;;;;;5027815;28;20590;-78
2023/09/27 02:10:05;;;;;;;8.47;7.60;;;12.20;99.90;;;;;;5025950;28;20235;-80
2023/09/27 02:12:31;;;;;;;9.17;8.30;;;12.20;99.90;;;;;;5018090;28;20222;-79
2023/09/27 02:14:59;;;;;;;8.07;7.37;;;12.10;99.90;;;;;;5002798;28;20288;-81
2023/09/27 02:17:26;;;;;;;8.80;7.90;;;12.10;99.90;;;;;;5048373;28;20224;-80
2023/09/27 02:19:53;;;;;;;8.33;7.33;;;12.10;99.90;;;;;;5028196;28;20339;-79
2023/09/27 02:22:19;;;;;;;8.90;8.00;;;12.00;99.90;;;;;;5025659;28;20307;-78
2023/09/27 02:24:47;;;;;;;8.80;8.00;;;12.00;99.90;;;;;;5004141;28;20241;-77
2023/09/27 02:27:15;;;;;;;9.07;7.80;;;12.00;99.90;;;;;;5027251;28;20624;-77
2023/09/27 02:29:42;;;;;;;8.47;7.73;;;12.00;99.90;;;;;;5026259;28;20293;-81
2023/09/27 02:32:10;;;;;;;9.07;8.17;;;11.90;99.90;;;;;;5016138;28;20221;-81
2023/09/27 02:34:37;;;;;;;8.53;7.73;;;11.90;99.90;;;;;;5005410;28;20316;-81
2023/09/27 02:37:05;;;;;;;11.03;9.17;;;11.90;99.90;;;;;;5003363;28;20591;-83
2023/09/27 02:39:31;;;;;;;10.10;9.03;;;11.80;99.90;;;;;;5007522;28;20291;-83
2023/09/27 02:41:59;;;;;;;8.83;8.03;;;11.80;99.90;;;;;;5013919;28;20222;-82
2023/09/27 02:44:26;;;;;;;7.50;6.73;;;11.80;99.90;;;;;;5026129;28;20224;-83
2023/09/27 02:46:53;;;;;;;8.23;7.43;;;11.80;99.90;;;;;;5022514;28;20598;-82
2023/09/27 02:49:22;;;;;;;8.80;7.90;;;11.80;99.90;;;;;;5040251;28;20285;-82
2023/09/27 02:51:51;;;;;;;8.43;7.50;;;11.70;99.90;;;;;;5042056;28;20634;-81
2023/09/27 02:54:19;;;;;;;9.60;8.60;;;11.70;99.90;;;;;;5027051;28;20736;-81
2023/09/27 02:56:47;;;;;;;9.27;8.37;;;11.70;99.90;;;;;;5055993;28;20978;-82
2023/09/27 02:59:14;;;;;;;10.73;8.13;;;11.60;99.90;;;;;;5015237;28;20237;-83
2023/09/27 03:01:41;;;;;;;11.43;10.03;;;11.70;99.90;;;;;;5003002;28;20279;-82
2023/09/27 03:04:10;;;;;;;9.87;9.00;;;11.60;99.90;;;;;;5013027;28;20274;-82
2023/09/27 03:06:39;;;;;;;10.10;9.00;;;11.60;99.90;;;;;;5020035;28;20321;-82
2023/09/27 03:09:08;;;;;;;10.03;8.97;;;11.60;99.90;;;;;;5027622;28;20235;-82
2023/09/27 03:11:36;;;;;;;9.17;7.87;;;11.50;99.90;;;;;;5024963;28;20934;-82
2023/09/27 03:14:03;;;;;;;9.60;7.93;;;11.50;99.90;;;;;;5009463;28;20305;-83
2023/09/27 03:16:30;;;;;;;8.43;7.50;;;11.50;99.90;;;;;;5017576;28;20316;-82
2023/09/27 03:18:58;;;;;;;9.43;8.20;;;11.50;99.90;;;;;;5001353;28;20320;-83
2023/09/27 03:21:26;;;;;;;9.87;8.07;;;11.40;99.90;;;;;;5005591;28;20319;-82
2023/09/27 03:23:54;;;;;;;9.47;7.90;;;11.40;99.90;;;;;;5020906;28;20528;-82
2023/09/27 03:26:23;;;;;;;8.43;7.63;;;11.30;99.90;;;;;;5028782;28;20253;-82
2023/09/27 03:28:51;;;;;;;10.60;9.50;;;11.30;99.90;;;;;;5028288;28;20714;-82
2023/09/27 03:31:20;;;;;;;9.80;8.80;;;11.30;99.90;;;;;;5027966;28;20256;-82
2023/09/27 03:33:47;;;;;;;10.30;9.17;;;11.20;99.90;;;;;;5026729;28;20231;-83
2023/09/27 03:36:14;;;;;;;8.90;8.03;;;11.20;99.90;;;;;;5024847;28;20233;-82
2023/09/27 03:38:42;;;;;;;10.30;9.30;;;11.20;99.90;;;;;;5015804;28;20229;-82
2023/09/27 03:41:11;;;;;;;9.97;8.97;;;11.20;99.90;;;;;;5005821;28;20285;-82
2023/09/27 03:43:38;;;;;;;9.70;8.80;;;11.20;99.90;;;;;;5027310;28;20809;-82
2023/09/27 03:46:05;;;;;;;8.70;7.90;;;11.10;99.90;;;;;;5022659;28;21291;-83
2023/09/27 03:48:34;;;;;;;9.83;8.93;;;11.10;99.90;;;;;;5025854;28;20231;-82
2023/09/27 03:51:01;;;;;;;9.60;8.60;;;11.10;99.90;;;;;;5025689;28;20226;-82
2023/09/27 03:53:30;;;;;;;10.73;9.63;;;11.10;99.90;;;;;;5052239;28;20235;-82
2023/09/27 03:55:57;;;;;;;10.53;9.50;;;11.10;99.90;;;;;;5021045;28;20580;-81
2023/09/27 03:58:25;;;;;;;9.83;8.93;;;11.10;99.90;;;;;;5026830;28;20311;-82
2023/09/27 04:00:52;;;;;;;9.70;8.67;;;11.10;99.90;;;;;;5025339;28;20316;-83
2023/09/27 04:03:20;;;;;;;10.23;8.10;;;11.10;99.90;;;;;;5014110;28;20695;-84
2023/09/27 04:05:46;;;;;;;10.97;9.87;;;11.10;99.90;;;;;;5016397;28;21073;-83
2023/09/27 04:08:13;;;;;;;9.20;8.40;;;11.10;99.90;;;;;;5019801;28;20324;-82
2023/09/27 04:10:40;;;;;;;11.90;10.70;;;11.00;99.90;;;;;;5018037;28;20758;-82
2023/09/27 04:13:06;;;;;;;9.90;8.90;;;11.00;99.90;;;;;;5052163;28;20846;-82
2023/09/27 04:15:36;;;;;;;9.60;8.70;;;11.00;99.90;;;;;;5022709;28;20773;-81
2023/09/27 04:18:04;;;;;;;9.47;8.47;;;11.00;99.90;;;;;;5021769;28;20243;-83
2023/09/27 04:20:31;;;;;;;10.27;9.10;;;11.00;99.90;;;;;;5024016;28;20681;-81
2023/09/27 04:22:57;;;;;;;9.20;8.30;;;11.00;99.90;;;;;;5023320;28;20227;-80
2023/09/27 04:25:24;;;;;;;8.60;7.80;;;11.00;99.90;;;;;;5020955;28;20238;-82
2023/09/27 04:27:51;;;;;;;11.97;10.63;;;10.90;99.90;;;;;;5023730;28;20829;-79
2023/09/27 04:30:19;;;;;;;11.47;10.30;;;10.90;99.90;;;;;;5023214;28;20720;-79
2023/09/27 04:32:51;;;;;;;13.00;11.60;;;10.90;99.90;;;;;;5022854;28;20220;-83
2023/09/27 04:35:18;;;;;;;10.93;9.80;;;10.90;99.90;;;;;;5024576;28;20246;-80
2023/09/27 04:37:45;;;;;;;12.83;10.97;;;10.90;99.90;;;;;;5051630;28;20224;-82
2023/09/27 04:40:13;;;;;;;15.07;13.53;;;10.90;99.90;;;;;;5023984;28;20293;-83
2023/09/27 04:42:41;;;;;;;10.03;8.60;;;10.90;99.90;;;;;;5024153;28;20232;-83
2023/09/27 04:45:10;;;;;;;11.63;10.43;;;10.90;99.90;;;;;;5026324;28;20232;-82
2023/09/27 04:47:37;;;;;;;11.73;10.53;;;10.90;99.90;;;;;;5024048;28;21368;-82
2023/09/27 04:50:09;;;;;;;13.63;12.10;;;10.90;99.90;;;;;;5022994;28;20999;-82
2023/09/27 04:52:36;;;;;;;15.13;13.13;;;10.90;99.90;;;;;;5022772;28;20225;-82
2023/09/27 04:55:04;;;;;;;14.07;12.77;;;10.90;99.90;;;;;;5021151;28;20216;-82
2023/09/27 04:57:30;;;;;;;14.73;13.17;;;10.90;99.90;;;;;;5018465;28;20752;-83
2023/09/27 04:59:57;;;;;;;13.07;11.87;;;10.90;99.90;;;;;;5023053;28;20712;-82
2023/09/27 05:02:25;;;;;;;11.90;10.60;;;10.90;99.90;;;;;;5029586;28;20857;-80
2023/09/27 05:04:52;;;;;;;12.53;11.23;;;10.90;99.90;;;;;;5026690;28;20978;-81
2023/09/27 05:07:20;;;;;;;11.77;10.63;;;10.90;99.90;;;;;;5024345;28;20231;-82
2023/09/27 05:09:48;;;;;;;12.00;10.73;;;10.90;99.90;;;;;;5027397;28;20682;-81
2023/09/27 05:12:15;;;;;;;11.37;10.23;;;10.90;99.90;;;;;;5025193;28;20335;-81
2023/09/27 05:14:42;;;;;;;12.90;11.60;;;10.90;99.90;;;;;;5027212;28;20306;-82
2023/09/27 05:17:09;;;;;;;13.13;11.60;;;10.90;99.90;;;;;;5031867;28;20312;-80
2023/09/27 05:19:36;;;;;;;11.57;9.40;;;10.90;99.90;;;;;;5022959;28;20696;-81
2023/09/27 05:22:03;;;;;;;10.83;9.73;;;10.90;99.90;;;;;;5025382;28;20273;-80
2023/09/27 05:24:32;;;;;;;10.87;9.87;;;10.90;99.90;;;;;;5024405;28;20223;-80
2023/09/27 05:27:03;;;;;;;10.53;8.93;;;10.80;99.90;;;;;;5020858;28;20822;-79
2023/09/27 05:29:30;;;;;;;11.87;8.80;;;10.80;99.90;;;;;;5024454;28;20238;-80
2023/09/27 05:31:56;;;;;;;10.47;9.40;;;10.80;99.90;;;;;;5021205;28;20226;-80
2023/09/27 05:34:23;;;;;;;11.33;10.00;;;10.80;99.90;;;;;;5023545;28;20227;-80
2023/09/27 05:36:50;;;;;;;12.50;11.20;;;10.80;99.90;;;;;;5020945;28;20685;-80
2023/09/27 05:39:17;;;;;;;12.60;10.67;;;10.80;99.90;;;;;;5020481;28;20237;-80
2023/09/27 05:41:45;;;;;;;13.57;10.47;;;10.80;99.90;;;;;;5024479;28;20218;-80
2023/09/27 05:44:12;;;;;;;12.07;9.97;;;10.80;99.90;;;;;;5039527;28;20226;-80
2023/09/27 05:46:40;;;;;;;12.40;11.13;;;10.80;99.90;;;;;;5023264;28;20236;-80
2023/09/27 05:49:09;;;;;;;11.63;10.53;;;10.80;99.90;;;;;;5023407;28;20314;-81
2023/09/27 05:51:36;;;;;;;12.80;11.50;;;10.80;99.90;;;;;;5024812;28;20230;-80
2023/09/27 05:54:05;;;;;;;11.23;10.13;;;10.90;99.90;;;;;;5053806;28;20240;-79
2023/09/27 05:56:33;;;;;;;11.23;9.73;;;10.90;99.90;;;;;;5018058;28;20246;-81
2023/09/27 05:59:01;;;;;;;11.57;10.37;;;11.00;99.90;;;;;;5043888;28;20236;-80
2023/09/27 06:01:28;;;;;;;13.07;11.70;;;11.00;99.90;;;;;;5010124;28;20235;-81
2023/09/27 06:03:55;;;;;;;12.07;10.67;;;11.10;99.90;;;;;;5021433;28;20224;-80
2023/09/27 06:06:22;;;;;;;12.73;11.53;;;11.10;99.90;;;;;;5024843;28;20221;-81
2023/09/27 06:08:49;;;;;;;13.40;11.53;;;11.20;99.90;;;;;;5030374;28;20223;-80
2023/09/27 06:11:15;;;;;;;12.97;11.63;;;11.20;99.90;;;;;;5027757;28;20214;-80
2023/09/27 06:13:44;;;;;;;12.87;11.43;;;11.20;99.90;;;;;;5031696;28;20576;-80
2023/09/27 06:16:17;;;;;;;12.33;11.00;;;11.30;99.90;;;;;;5015267;28;20758;-80
2023/09/27 06:18:45;;;;;;;12.90;11.03;;;11.30;99.90;;;;;;5019266;28;20232;-80
2023/09/27 06:21:11;;;;;;;13.13;11.83;;;11.30;99.90;;;;;;5025047;28;20211;-80
2023/09/27 06:23:38;;;;;;;12.73;11.43;;;11.40;99.90;;;;;;5024768;28;20232;-80
2023/09/27 06:26:07;;;;;;;12.97;11.63;;;11.40;99.90;;;;;;5023784;28;20256;-80
2023/09/27 06:28:36;;;;;;;13.20;11.70;;;11.50;99.90;;;;;;5031060;28;20238;-80
2023/09/27 06:31:04;;;;;;;14.53;11.67;;;11.50;99.90;;;;;;5026059;28;20228;-80
2023/09/27 06:33:33;;;;;;;13.60;11.73;;;11.60;99.90;;;;;;5024468;28;20221;-80
2023/09/27 06:36:00;;;;;;;14.03;12.63;;;11.60;99.90;;;;;;5024994;28;20932;-80
2023/09/27 06:38:27;;;;;;;13.70;12.33;;;11.70;99.90;;;;;;5028275;28;20274;-80
2023/09/27 06:40:54;;;;;;;13.60;12.20;;;11.70;99.90;;;;;;5027509;28;20790;-81
2023/09/27 06:43:21;;;;;;;15.33;12.80;;;11.80;99.90;;;;;;5017654;28;20224;-80
2023/09/27 06:45:49;;;;;;;14.20;12.73;;;11.80;99.90;;;;;;5026473;28;20229;-81
2023/09/27 06:48:18;;;;;;;14.43;12.97;;;11.90;99.90;;;;;;5025037;28;20233;-80
2023/09/27 06:50:46;;;;;;;15.87;13.27;;;12.00;99.90;;;;;;5021231;28;20316;-80
2023/09/27 06:53:13;;;;;;;13.60;12.20;;;12.00;99.90;;;;;;5023616;28;20305;-80
2023/09/27 06:55:40;;;;;;;14.20;12.70;;;12.10;99.90;;;;;;5024313;28;20224;-80
2023/09/27 06:58:06;;;;;;;13.90;12.40;;;12.10;99.90;;;;;;5022124;28;20256;-80
2023/09/27 07:00:33;;;;;;;14.37;12.97;;;12.20;99.90;;;;;;5024239;28;20572;-80
2023/09/27 07:03:00;;;;;;;13.73;12.33;;;12.30;99.90;;;;;;5023748;28;20251;-80
2023/09/27 07:05:26;;;;;;;13.97;12.47;;;12.30;99.90;;;;;;5040199;28;20771;-80
2023/09/27 07:07:55;;;;;;;13.30;11.90;;;12.40;99.90;;;;;;5024092;28;20239;-80
2023/09/27 07:10:23;;;;;;;15.30;12.30;;;12.50;99.90;;;;;;5024248;28;20282;-80
2023/09/27 07:12:50;;;;;;;15.37;12.47;;;12.50;99.90;;;;;;5024396;28;20233;-80
2023/09/27 07:15:16;;;;;;;14.37;12.20;;;12.60;99.90;;;;;;5022852;28;20220;-80
2023/09/27 07:17:44;;;;;;;14.03;12.53;;;12.70;99.90;;;;;;5025445;28;20227;-80
2023/09/27 07:20:20;;;;;;;14.20;12.63;;;12.70;99.90;;;;;;5023043;28;20647;-80
2023/09/27 07:22:47;;;;;;;14.67;12.17;;;12.80;99.90;;;;;;5014011;28;20231;-80
2023/09/27 07:25:18;;;;;;;15.93;12.23;;;12.90;99.90;;;;;;5023619;28;20658;-80
2023/09/27 07:27:46;;;;;;;14.20;12.70;;;13.00;99.90;;;;;;5023558;28;20221;-81
2023/09/27 07:30:17;;;;;;;13.83;12.53;;;13.00;99.90;;;;;;5029513;28;20229;-80
2023/09/27 07:32:45;;;;;;;13.10;11.90;;;13.10;99.90;;;;;;5025369;28;20319;-80
2023/09/27 07:35:14;;;;;;;12.13;10.90;;;13.20;99.90;;;;;;5024462;28;20225;-80
2023/09/27 07:37:41;;;;;;;13.37;11.47;;;13.30;99.90;;;;;;5019977;28;20214;-80
2023/09/27 07:40:11;;;;;;;14.23;11.07;;;13.40;99.90;;;;;;5024674;28;20222;-80
2023/09/27 07:42:40;;;;;;;13.33;11.07;;;13.50;99.90;;;;;;5025728;28;20788;-80
2023/09/27 07:45:14;;;;;;;13.10;11.27;;;13.70;99.90;;;;;;5024900;28;20226;-80
2023/09/27 07:47:41;;;;;;;13.10;11.00;;;13.80;99.90;;;;;;5022632;28;20248;-80
2023/09/27 07:50:10;;;;;;;12.40;11.20;;;13.90;99.90;;;;;;5027515;28;20218;-80
2023/09/27 07:52:37;;;;;;;13.00;10.80;;;14.00;99.90;;;;;;5020855;28;20355;-80
2023/09/27 07:55:04;;;;;;;11.73;10.50;;;14.10;99.90;;;;;;5020923;28;20274;-81
2023/09/27 07:57:31;;;;;;;11.70;10.60;;;14.20;99.90;;;;;;5025430;28;20588;-80
2023/09/27 08:00:00;;;;;;;13.30;11.10;;;14.30;99.90;;;;;;5031571;28;20314;-80
2023/09/27 08:02:27;;;;;;;12.23;10.37;;;14.40;99.90;;;;;;5027254;28;20312;-80
2023/09/27 08:04:55;;;;;;;12.37;10.53;;;14.40;99.90;;;;;;5022850;28;20233;-80
2023/09/27 08:07:22;;;;;;;10.80;9.80;;;14.50;99.90;;;;;;5023279;28;20664;-80
2023/09/27 08:09:49;;;;;;;10.40;9.40;;;14.70;99.90;;;;;;5024950;28;20223;-80
2023/09/27 08:12:16;;;;;;;10.03;9.10;;;14.90;99.90;;;;;;5034767;28;20718;-80
2023/09/27 08:14:43;;;;;;;10.17;9.27;;;15.10;99.90;;;;;;5022413;28;20230;-80
2023/09/27 08:17:11;;;;;;;12.23;9.37;;;15.40;99.90;;;;;;5020131;28;20712;-80
2023/09/27 08:19:38;;;;;;;12.13;9.00;;;15.60;99.90;;;;;;5024008;28;20729;-80
2023/09/27 08:22:05;;;;;;;8.80;7.83;;;15.80;99.90;;;;;;5025602;28;20221;-80
2023/09/27 08:24:31;;;;;;;9.40;8.33;;;15.90;99.90;;;;;;5025818;28;20267;-80
2023/09/27 08:27:00;;;;;;;8.63;7.73;;;16.10;99.90;;;;;;5027964;28;20217;-81
2023/09/27 08:29:26;;;;;;;8.67;7.77;;;16.20;99.90;;;;;;5024522;28;20303;-80
2023/09/27 08:31:53;;;;;;;10.53;7.80;;;16.40;99.90;;;;;;5047639;28;20228;-81
2023/09/27 08:34:21;;;;;;;10.32;7.57;;;16.80;99.90;;;;;;5047290;28;20703;-80
2023/09/27 08:36:48;;;;;;;8.80;7.25;;;17.20;99.90;;;;;;5061511;28;20223;-81
2023/09/27 08:39:15;;;;;;;6.97;6.28;;;17.80;99.90;;;;;;5030496;28;20312;-80
2023/09/27 08:41:42;;;;;;;7.63;6.80;;;18.50;99.90;;;;;;5030822;28;20691;-80
2023/09/27 08:44:11;;;;;;;7.15;6.50;;;19.20;99.90;;;;;;5032256;28;20659;-80
2023/09/27 08:46:38;;;;;;;11.98;6.40;;;20.00;99.90;;;;;;5043736;28;20364;-80
2023/09/27 08:49:08;;;;;;;7.53;6.32;;;20.70;99.90;;;;;;5029755;28;20254;-80
2023/09/27 08:51:38;;;;;;;6.65;5.38;;;21.30;99.90;;;;;;5033413;28;20332;-80
2023/09/27 08:54:04;;;;;;;9.15;5.50;;;21.90;99.90;;;;;;5041539;28;20256;-81
2023/09/27 08:56:32;;;;;;;6.82;5.60;;;22.50;99.90;;;;;;5024016;28;20290;-80
2023/09/27 08:59:01;;;;;;;6.93;5.30;;;23.00;99.90;;;;;;5035310;28;20216;-81
2023/09/27 09:01:28;;;;;;;7.72;5.22;;;23.50;99.90;;;;;;5031562;28;20228;-81
2023/09/27 09:03:55;;;;;;;7.10;5.35;;;23.90;99.90;;;;;;5032339;28;20251;-80
2023/09/27 09:06:23;;;;;;;10.63;5.78;;;24.30;99.90;;;;;;5029959;28;20223;-80
2023/09/27 09:08:52;;;;;;;7.07;4.95;;;24.70;99.90;;;;;;5006332;28;20229;-80
2023/09/27 09:11:22;;;;;;;6.88;4.85;;;25.00;99.90;;;;;;5008749;28;20272;-81
2023/09/27 09:13:56;;;;;;;6.05;5.00;;;25.20;99.90;;;;;;5027280;28;20225;-81
2023/09/27 09:16:23;;;;;;;7.32;5.05;;;25.60;99.90;;;;;;5031895;28;20220;-81
2023/09/27 09:18:51;;;;;;;5.07;4.30;;;25.80;99.90;;;;;;5028262;28;20279;-81
2023/09/27 09:21:19;;;;;;;7.40;4.85;;;26.10;99.90;;;;;;5031427;28;20213;-81
2023/09/27 09:23:49;;;;;;;4.65;4.18;;;26.40;99.90;;;;;;5030566;28;20217;-81
2023/09/27 09:26:28;;;;;;;4.63;4.20;;;26.60;99.90;;;;;;5027969;28;20228;-81
2023/09/27 09:28:56;;;;;;;6.10;4.43;;;26.80;99.20;;;;;;5032751;28;20223;-81
2023/09/27 09:31:23;;;;;;;6.05;5.00;;;27.10;99.20;;;;;;5029918;28;20224;-81
2023/09/27 09:34:02;;;;;;;7.35;4.93;;;27.20;98.70;;;;;;5054558;28;20225;-81
2023/09/27 09:36:29;;;;;;;4.45;4.05;;;27.50;97.20;;;;;;5028495;28;20237;-81
2023/09/27 09:39:04;;;;;;;5.00;3.78;;;27.70;98.00;;;;;;5035280;28;20220;-81
2023/09/27 09:41:44;;;;;;;6.85;4.10;;;27.90;96.40;;;;;;5030091;28;20923;-81
2023/09/27 09:44:19;;;;;;;3.90;3.45;;;28.00;96.30;;;;;;5032772;28;20221;-81
2023/09/27 09:46:46;;;;;;;4.90;3.42;;;28.20;95.70;;;;;;5023938;28;20229;-80
2023/09/27 09:49:14;;;;;;;4.07;3.08;;;28.40;96.30;;;;;;5000948;28;20259;-81
2023/09/27 09:51:44;;;;;;;4.43;3.80;;;28.50;95.60;;;;;;5030754;28;20221;-81
2023/09/27 09:54:11;;;;;;;4.82;3.60;;;28.60;95.10;;;;;;5033254;28;20224;-81
2023/09/27 09:56:41;;;;;;;5.28;3.22;;;28.70;94.90;;;;;;5029047;28;20235;-81
2023/09/27 09:59:11;;;;;;;4.70;4.03;;;28.90;94.10;;;;;;5047696;28;20227;-80
2023/09/27 10:01:39;;;;;;;4.82;3.75;;;29.00;92.90;;;;;;5029769;28;20831;-81
2023/09/27 10:04:07;;;;;;;3.65;3.33;;;29.00;92.60;;;;;;5031600;28;20297;-81
2023/09/27 10:06:37;;;;;;;5.10;3.60;;;29.10;92.40;;;;;;5029328;28;20236;-81
2023/09/27 10:09:05;;;;;;;4.07;3.63;;;29.10;91.60;;;;;;5027642;28;20756;-81
2023/09/27 10:11:33;;;;;;;3.80;3.00;;;29.10;91.70;;;;;;5029642;28;20591;-81
2023/09/27 10:14:02;;;;;;;4.20;3.13;;;29.10;91.80;;;;;;5027671;28;20239;-81
2023/09/27 10:16:29;;;;;;;4.00;3.00;;;29.10;90.50;;;;;;5028892;28;20596;-81
2023/09/27 10:18:55;;;;;;;4.72;3.50;;;29.20;90.40;;;;;;5030557;28;20221;-81
2023/09/27 10:21:22;;;;;;;3.85;2.70;;;29.20;90.10;;;;;;5031704;28;20228;-81
2023/09/27 10:24:01;;;;;;;6.13;3.60;;;29.20;90.20;;;;;;5031484;28;20227;-81
2023/09/27 10:26:33;;;;;;;5.90;3.47;;;29.10;88.70;;;;;;5029029;28;20590;-81
2023/09/27 10:29:18;;;;;;;7.72;6.47;;;29.10;88.60;;;;;;5027838;28;20227;-81
2023/09/27 10:32:18;;;;;;;17.08;13.88;;;29.10;88.60;;;;;;5033692;28;20280;-81
2023/09/27 10:34:44;;;;;;;7.40;5.38;;;29.00;88.50;;;;;;5058768;28;20220;-81
2023/09/27 10:37:11;;;;;;;7.25;3.78;;;29.00;89.00;;;;;;5030038;28;20575;-81
2023/09/27 10:39:39;;;;;;;5.30;3.10;;;29.00;88.40;;;;;;5022378;28;20232;-81
2023/09/27 10:42:06;;;;;;;4.47;3.33;;;28.90;87.80;;;;;;5025539;28;20256;-81
2023/09/27 10:44:36;;;;;;;6.35;2.97;;;28.80;88.10;;;;;;5035391;28;20243;-81
2023/09/27 10:47:04;;;;;;;5.22;3.35;;;28.60;88.20;;;;;;5030694;28;20255;-81
2023/09/27 10:49:38;;;;;;;9.68;3.38;;;28.50;87.70;;;;;;5030178;28;20220;-81
2023/09/27 10:52:15;;;;;;;5.03;3.38;;;28.40;87.80;;;;;;5026321;28;20588;-81
2023/09/27 10:54:42;;;;;;;5.22;3.67;;;28.30;88.40;;;;;;5025504;28;20251;-82
2023/09/27 10:57:09;;;;;;;3.83;3.35;;;28.20;88.10;;;;;;5024761;28;20879;-81
2023/09/27 10:59:37;;;;;;;3.35;3.05;;;28.00;88.10;;;;;;5031063;28;20699;-81
2023/09/27 11:02:04;;;;;;;4.60;3.60;;;27.90;87.70;;;;;;5033192;28;20224;-81
2023/09/27 11:04:32;;;;;;;5.20;3.53;;;27.70;87.60;;;;;;5028079;28;20573;-80
2023/09/27 11:06:59;;;;;;;4.47;3.22;;;27.40;87.40;;;;;;5029359;28;20231;-81
2023/09/27 11:09:27;;;;;;;4.25;3.30;;;27.20;87.80;;;;;;5033214;28;20225;-81
2023/09/27 11:11:55;;;;;;;5.47;3.13;;;27.00;87.80;;;;;;5029244;28;20228;-81
2023/09/27 11:14:31;;;;;;;5.70;3.47;;;26.80;88.40;;;;;;5028575;28;20282;-81
2023/09/27 11:17:15;;;;;;;3.90;3.42;;;26.60;88.60;;;;;;5035642;28;20729;-81
2023/09/27 11:19:41;;;;;;;7.07;3.67;;;26.50;88.90;;;;;;5008656;28;20221;-80
2023/09/27 11:22:08;;;;;;;4.70;3.60;;;26.40;90.10;;;;;;5009244;28;20782;-81
2023/09/27 11:24:39;;;;;;;3.70;3.28;;;26.40;90.40;;;;;;5010327;28;20232;-81
2023/09/27 11:27:06;;;;;;;4.15;3.15;;;26.40;90.40;;;;;;5007324;28;20225;-81
2023/09/27 11:29:33;;;;;;;5.38;2.97;;;26.60;90.80;;;;;;5028747;28;20224;-81
2023/09/27 11:32:01;;;;;;;4.85;3.03;;;26.80;90.80;;;;;;5029901;28;20244;-80
2023/09/27 11:34:28;;;;;;;4.13;3.42;;;27.00;90.50;;;;;;5043563;28;20603;-81
2023/09/27 11:36:57;;;;;;;5.53;3.75;;;27.30;89.80;;;;;;5029777;28;20592;-81
2023/09/27 11:39:28;;;;;;;3.58;3.00;;;27.50;88.70;;;;;;5025874;28;20642;-81
2023/09/27 11:41:59;;;;;;;5.13;3.47;;;27.80;87.40;;;;;;5039756;28;20227;-81
2023/09/27 11:44:27;;;;;;;4.40;3.58;;;28.00;86.40;;;;;;5029857;28;20220;-80
2023/09/27 11:47:07;;;;;;;4.70;3.40;;;28.20;86.50;;;;;;5025895;28;20239;-81
2023/09/27 11:49:34;;;;;;;4.43;3.05;;;28.30;85.50;;;;;;5027230;28;20303;-81
2023/09/27 11:52:02;;;;;;;5.20;3.45;;;28.40;86.30;;;;;;5032514;28;20227;-81
2023/09/27 11:54:30;;;;;;;5.18;3.35;;;28.60;85.90;;;;;;5028022;28;20233;-81
2023/09/27 11:56:57;;;;;;;5.55;3.17;;;28.70;85.10;;;;;;5028550;28;20232;-81
2023/09/27 11:59:24;;;;;;;3.83;3.33;;;28.80;83.20;;;;;;5031774;28;21551;-81
2023/09/27 12:01:51;;;;;;;3.75;3.00;;;28.80;83.80;;;;;;5031081;28;20224;-81
2023/09/27 12:04:20;;;;;;;4.57;2.90;;;28.90;83.10;;;;;;5032485;28;20227;-81
2023/09/27 12:06:46;;;;;;;5.32;2.90;;;29.00;79.90;;;;;;5028982;28;20228;-80
2023/09/27 12:09:14;;;;;;;2.97;2.20;;;29.00;79.50;;;;;;5029586;28;20231;-81
2023/09/27 12:11:41;;;;;;;3.65;2.63;;;28.90;79.90;;;;;;5024861;28;20220;-81
2023/09/27 12:14:07;;;;;;;3.45;2.78;;;28.90;79.30;;;;;;5031296;28;20747;-81
2023/09/27 12:16:34;;;;;;;3.13;2.60;;;28.90;78.40;;;;;;5030809;28;20234;-81
2023/09/27 12:19:02;;;;;;;4.90;3.00;;;28.80;77.70;;;;;;5027642;28;20244;-81
2023/09/27 12:21:33;;;;;;;3.78;2.40;;;28.70;78.00;;;;;;5016830;28;20293;-81
2023/09/27 12:24:00;;;;;;;3.28;2.60;;;28.70;77.40;;;;;;5010121;28;20940;-81
2023/09/27 12:26:26;;;;;;;2.90;2.30;;;28.60;77.10;;;;;;5032974;28;20311;-81
2023/09/27 12:28:53;;;;;;;4.55;2.80;;;28.60;77.40;;;;;;5028229;28;20216;-81
2023/09/27 12:31:20;;;;;;;3.08;2.60;;;28.50;77.00;;;;;;5027631;28;20213;-81
2023/09/27 12:33:46;;;;;;;4.65;2.58;;;28.50;77.20;;;;;;5027480;28;20235;-81
2023/09/27 12:36:13;;;;;;;4.55;3.22;;;28.40;77.10;;;;;;5029673;28;20228;-81
2023/09/27 12:38:42;;;;;;;5.10;3.30;;;28.40;77.40;;;;;;5028592;28;20912;-81
2023/09/27 12:41:09;;;;;;;4.80;2.90;;;28.40;77.50;;;;;;5028675;28;22131;-81
2023/09/27 12:43:36;;;;;;;3.40;3.08;;;28.40;78.10;;;;;;5026749;28;20646;-81
2023/09/27 12:46:03;;;;;;;2.63;2.42;;;28.40;78.60;;;;;;5033563;28;20320;-81